createdAt,value
2023-05-06T00:00:07.138Z,12.81
2023-05-06T00:02:34.890Z,12.75
2023-05-06T00:05:03.301Z,12.70
2023-05-06T00:07:30.915Z,12.75
2023-05-06T00:09:58.564Z,12.66
2023-05-06T00:12:26.126Z,12.63
2023-05-06T00:14:53.798Z,12.68
2023-05-06T00:17:22.759Z,12.63
2023-05-06T00:19:52.348Z,12.65
2023-05-06T00:22:19.984Z,12.64
2023-05-06T00:24:47.663Z,12.69
2023-05-06T00:27:15.278Z,12.60
2023-05-06T00:29:43.129Z,12.60
2023-05-06T00:32:11.107Z,12.63
2023-05-06T00:34:40.429Z,12.71
2023-05-06T00:37:10.112Z,12.62
2023-05-06T00:39:37.907Z,12.54
2023-05-06T00:42:05.930Z,12.48
2023-05-06T00:44:33.504Z,12.47
2023-05-06T00:47:01.871Z,12.45
2023-05-06T00:49:30.277Z,12.51
2023-05-06T00:52:00.565Z,12.37
2023-05-06T00:54:29.900Z,12.42
2023-05-06T00:56:59.176Z,12.35
2023-05-06T00:59:26.898Z,12.34
2023-05-06T01:01:54.993Z,12.27
2023-05-06T01:04:24.031Z,12.26
2023-05-06T01:06:57.008Z,12.25
2023-05-06T01:09:30.740Z,12.16
2023-05-06T01:12:05.646Z,12.16
2023-05-06T01:14:37.769Z,12.14
2023-05-06T01:17:06.516Z,12.05
2023-05-06T01:19:41.912Z,12.04
2023-05-06T01:22:11.098Z,12.01
2023-05-06T01:24:41.600Z,11.90
2023-05-06T01:27:10.226Z,11.83
2023-05-06T01:29:39.595Z,11.80
2023-05-06T01:32:18.416Z,11.85
2023-05-06T01:34:51.197Z,11.83
2023-05-06T01:37:23.134Z,11.72
2023-05-06T01:39:55.729Z,11.68
2023-05-06T01:42:24.990Z,11.58
2023-05-06T01:44:54.359Z,11.61
2023-05-06T01:47:22.289Z,11.57
2023-05-06T01:49:50.025Z,11.50
2023-05-06T01:52:17.756Z,11.55
2023-05-06T01:54:45.546Z,11.56
2023-05-06T01:57:14.766Z,11.50
2023-05-06T01:59:42.606Z,11.46
2023-05-06T02:02:10.587Z,11.43
2023-05-06T02:04:38.640Z,11.43
2023-05-06T02:07:06.622Z,11.39
2023-05-06T02:09:34.455Z,11.36
2023-05-06T02:12:02.351Z,11.41
2023-05-06T02:14:31.643Z,11.31
2023-05-06T02:16:59.403Z,11.27
2023-05-06T02:19:27.075Z,11.24
2023-05-06T02:21:54.834Z,11.25
2023-05-06T02:24:22.767Z,11.29
2023-05-06T02:26:50.668Z,11.32
2023-05-06T02:29:18.551Z,11.41
2023-05-06T02:31:47.670Z,11.42
2023-05-06T02:34:15.517Z,11.40
2023-05-06T02:36:43.273Z,11.46
2023-05-06T02:39:11.121Z,11.44
2023-05-06T02:41:38.952Z,11.39
2023-05-06T02:44:06.735Z,11.32
2023-05-06T02:46:35.975Z,11.30
2023-05-06T02:49:05.161Z,11.39
2023-05-06T02:51:33.005Z,11.31
2023-05-06T02:54:00.762Z,11.44
2023-05-06T02:56:28.613Z,11.37
2023-05-06T02:58:56.536Z,11.35
2023-05-06T03:01:24.382Z,11.33
2023-05-06T03:03:52.005Z,11.38
2023-05-06T03:06:20.914Z,11.37
2023-05-06T03:08:48.919Z,11.30
2023-05-06T03:11:16.805Z,11.28
2023-05-06T03:13:44.646Z,11.30
2023-05-06T03:16:15.410Z,11.35
2023-05-06T03:18:43.275Z,11.43
2023-05-06T03:21:12.164Z,11.45
2023-05-06T03:23:41.315Z,11.48
2023-05-06T03:26:08.994Z,11.40
2023-05-06T03:28:36.633Z,11.32
2023-05-06T03:31:04.251Z,11.34
2023-05-06T03:33:31.987Z,11.29
2023-05-06T03:35:59.588Z,11.28
2023-05-06T03:38:27.248Z,11.29
2023-05-06T03:40:56.190Z,11.34
2023-05-06T03:43:23.805Z,11.32
2023-05-06T03:45:51.609Z,11.36
2023-05-06T03:48:19.167Z,11.39
2023-05-06T03:50:46.758Z,11.39
2023-05-06T03:53:14.356Z,11.33
2023-05-06T03:55:41.933Z,11.30
2023-05-06T03:58:11.320Z,11.33
2023-05-06T04:00:38.946Z,11.30
2023-05-06T04:03:06.552Z,11.19
2023-05-06T04:05:34.172Z,11.23
2023-05-06T04:08:01.750Z,11.20
2023-05-06T04:10:29.313Z,11.16
2023-05-06T04:12:56.838Z,11.22
2023-05-06T04:15:25.771Z,11.32
2023-05-06T04:17:53.373Z,11.41
2023-05-06T04:20:20.933Z,11.44
2023-05-06T04:22:48.543Z,11.46
2023-05-06T04:25:16.336Z,11.48
2023-05-06T04:27:43.934Z,11.56
2023-05-06T04:30:12.533Z,11.55
2023-05-06T04:32:41.531Z,11.58
2023-05-06T04:35:10.201Z,11.67
2023-05-06T04:37:38.078Z,11.71
2023-05-06T04:40:06.913Z,11.75
2023-05-06T04:42:34.626Z,11.79
2023-05-06T04:45:02.279Z,11.81
2023-05-06T04:47:29.977Z,11.88
2023-05-06T04:49:58.906Z,11.86
2023-05-06T04:52:26.695Z,11.94
2023-05-06T04:54:54.282Z,11.94
2023-05-06T04:57:21.894Z,11.93
2023-05-06T04:59:49.474Z,11.99
2023-05-06T05:02:17.161Z,12.05
2023-05-06T05:04:44.772Z,12.18
2023-05-06T05:07:13.776Z,12.29
2023-05-06T05:09:42.240Z,12.45
2023-05-06T05:12:09.878Z,12.44
2023-05-06T05:14:37.647Z,12.49
2023-05-06T05:17:05.615Z,12.55
2023-05-06T05:19:33.259Z,12.61
2023-05-06T05:22:00.827Z,12.60
2023-05-06T05:24:29.795Z,12.69
2023-05-06T05:26:57.352Z,12.83
2023-05-06T05:29:24.920Z,12.83
2023-05-06T05:31:52.517Z,12.81
2023-05-06T05:34:20.090Z,12.87
2023-05-06T05:36:47.685Z,13.02
2023-05-06T05:39:15.259Z,13.00
2023-05-06T05:41:44.172Z,13.00
2023-05-06T05:44:11.830Z,13.10
2023-05-06T05:46:39.499Z,13.13
2023-05-06T05:49:07.489Z,13.15
2023-05-06T05:51:35.279Z,13.20
2023-05-06T05:54:02.885Z,13.36
2023-05-06T05:56:30.403Z,13.37
2023-05-06T05:58:59.379Z,13.31
2023-05-06T06:01:26.970Z,13.34
2023-05-06T06:03:55.976Z,13.48
2023-05-06T06:06:24.305Z,13.41
2023-05-06T06:08:52.128Z,13.54
2023-05-06T06:11:19.839Z,13.54
2023-05-06T06:13:47.446Z,13.50
2023-05-06T06:16:16.421Z,13.56
2023-05-06T06:18:44.048Z,13.56
2023-05-06T06:21:11.657Z,13.72
2023-05-06T06:23:39.410Z,13.94
2023-05-06T06:26:07.046Z,13.95
2023-05-06T06:28:34.637Z,14.06
2023-05-06T06:31:02.861Z,14.08
2023-05-06T06:33:31.811Z,14.16
2023-05-06T06:35:59.564Z,14.11
2023-05-06T06:38:27.175Z,14.12
2023-05-06T06:40:54.808Z,14.21
2023-05-06T06:43:23.804Z,14.18
2023-05-06T06:45:51.595Z,14.08
2023-05-06T06:48:20.282Z,14.05
2023-05-06T06:50:49.308Z,14.14
2023-05-06T06:53:16.866Z,14.10
2023-05-06T06:55:44.757Z,14.25
2023-05-06T06:58:12.366Z,14.45
2023-05-06T07:00:39.989Z,14.60
2023-05-06T07:03:07.660Z,14.75
2023-05-06T07:05:35.642Z,14.92
2023-05-06T07:08:04.678Z,15.02
2023-05-06T07:10:32.285Z,15.23
2023-05-06T07:12:59.923Z,15.26
2023-05-06T07:15:27.613Z,15.41
2023-05-06T07:17:55.240Z,15.49
2023-05-06T07:20:22.853Z,15.65
2023-05-06T07:22:50.452Z,15.76
2023-05-06T07:25:19.543Z,15.91
2023-05-06T07:27:47.096Z,16.00
2023-05-06T07:30:14.972Z,15.89
2023-05-06T07:32:43.392Z,15.88
2023-05-06T07:35:11.212Z,16.09
2023-05-06T07:37:38.975Z,16.29
2023-05-06T07:40:07.994Z,16.29
2023-05-06T07:42:36.918Z,16.28
2023-05-06T07:45:05.183Z,16.39
2023-05-06T07:47:33.554Z,16.35
2023-05-06T07:50:01.262Z,16.42
2023-05-06T07:52:28.897Z,16.73
2023-05-06T07:54:56.575Z,16.81
2023-05-06T07:57:24.129Z,16.92
2023-05-06T07:59:53.836Z,16.98
2023-05-06T08:02:21.411Z,17.07
2023-05-06T08:04:50.947Z,17.08
2023-05-06T08:07:19.363Z,16.97
2023-05-06T08:09:46.945Z,17.26
2023-05-06T08:12:15.728Z,17.18
2023-05-06T08:14:43.288Z,17.29
2023-05-06T08:17:12.169Z,17.31
2023-05-06T08:19:39.757Z,17.47
2023-05-06T08:22:07.252Z,17.46
2023-05-06T08:24:34.882Z,17.61
2023-05-06T08:27:04.204Z,17.84
2023-05-06T08:29:31.776Z,17.73
2023-05-06T08:31:59.408Z,17.54
2023-05-06T08:34:28.415Z,17.70
2023-05-06T08:36:56.738Z,17.74
2023-05-06T08:39:24.336Z,17.80
2023-05-06T08:41:53.600Z,17.90
2023-05-06T08:44:24.529Z,17.87
2023-05-06T08:46:52.447Z,18.22
2023-05-06T08:49:20.158Z,18.26
2023-05-06T08:51:52.288Z,18.29
2023-05-06T08:54:20.030Z,18.35
2023-05-06T08:56:50.048Z,18.40
2023-05-06T08:59:17.936Z,18.54
2023-05-06T09:01:45.618Z,18.68
2023-05-06T09:04:13.822Z,18.71
2023-05-06T09:06:41.819Z,18.78
2023-05-06T09:09:11.427Z,18.79
2023-05-06T09:11:39.592Z,18.74
2023-05-06T09:14:12.202Z,18.96
2023-05-06T09:16:40.365Z,18.97
2023-05-06T09:19:07.971Z,19.00
2023-05-06T09:21:35.990Z,18.90
2023-05-06T09:24:04.116Z,18.87
2023-05-06T09:26:33.993Z,19.16
2023-05-06T09:29:02.525Z,19.19
2023-05-06T09:31:30.473Z,19.61
2023-05-06T09:33:59.214Z,19.84
2023-05-06T09:36:28.073Z,19.89
2023-05-06T09:38:56.465Z,20.15
2023-05-06T09:41:25.689Z,19.98
2023-05-06T09:43:55.710Z,20.49
2023-05-06T09:46:24.483Z,20.51
2023-05-06T09:48:53.184Z,20.63
2023-05-06T09:51:21.174Z,20.54
2023-05-06T09:53:48.943Z,20.41
2023-05-06T09:56:17.035Z,20.29
2023-05-06T09:58:44.652Z,20.36
2023-05-06T10:01:19.197Z,20.69
2023-05-06T10:03:54.508Z,20.73
2023-05-06T10:06:24.153Z,20.82
2023-05-06T10:08:52.095Z,20.63
2023-05-06T10:11:20.644Z,20.69
2023-05-06T10:13:48.719Z,20.78
2023-05-06T10:16:18.490Z,21.19
2023-05-06T10:18:46.745Z,21.44
2023-05-06T10:21:18.237Z,21.41
2023-05-06T10:23:52.023Z,21.29
2023-05-06T10:26:21.726Z,21.23
2023-05-06T10:28:52.675Z,21.23
2023-05-06T10:31:21.722Z,21.23
2023-05-06T10:33:51.803Z,21.63
2023-05-06T10:36:21.334Z,21.73
2023-05-06T10:38:52.341Z,21.43
2023-05-06T10:41:22.132Z,21.59
2023-05-06T10:43:56.436Z,21.58
2023-05-06T10:46:26.146Z,21.67
2023-05-06T10:49:19.962Z,21.69
2023-05-06T10:51:48.685Z,21.96
2023-05-06T10:54:25.701Z,21.98
2023-05-06T10:57:09.679Z,22.36
2023-05-06T10:59:37.275Z,22.43
2023-05-06T11:02:12.265Z,22.62
2023-05-06T11:04:40.250Z,22.63
2023-05-06T11:07:09.957Z,22.79
2023-05-06T11:09:55.719Z,23.07
2023-05-06T11:12:23.507Z,23.15
2023-05-06T11:14:51.250Z,23.13
2023-05-06T11:17:33.825Z,23.05
2023-05-06T11:20:19.367Z,22.92
2023-05-06T11:22:46.950Z,22.89
2023-05-06T11:25:14.580Z,23.11
2023-05-06T11:27:42.384Z,22.88
2023-05-06T11:30:15.053Z,22.85
2023-05-06T11:32:44.699Z,22.88
2023-05-06T11:35:12.951Z,23.02
2023-05-06T11:37:43.507Z,22.83
2023-05-06T11:40:19.872Z,22.59
2023-05-06T11:42:47.424Z,22.46
2023-05-06T11:45:15.036Z,22.41
2023-05-06T11:47:45.937Z,22.60
2023-05-06T11:50:13.587Z,22.61
2023-05-06T11:52:41.260Z,22.37
2023-05-06T11:55:10.837Z,22.37
2023-05-06T11:57:44.635Z,22.47
2023-05-06T12:00:13.293Z,22.65
2023-05-06T12:02:42.119Z,22.64
2023-05-06T12:05:12.192Z,22.51
2023-05-06T12:07:42.966Z,22.78
2023-05-06T12:10:11.090Z,22.84
2023-05-06T12:12:39.143Z,22.59
2023-05-06T12:15:08.106Z,22.52
2023-05-06T12:17:35.807Z,22.46
2023-05-06T12:20:04.060Z,22.17
2023-05-06T12:22:33.363Z,22.46
2023-05-06T12:25:14.006Z,22.57
2023-05-06T12:27:42.116Z,22.86
2023-05-06T12:30:11.331Z,22.80
2023-05-06T12:32:57.462Z,22.96
2023-05-06T12:35:29.222Z,23.18
2023-05-06T12:37:59.094Z,23.08
2023-05-06T12:40:26.704Z,22.70
2023-05-06T12:42:55.180Z,22.56
2023-05-06T12:45:23.718Z,22.49
2023-05-06T12:47:55.065Z,22.34
2023-05-06T12:50:33.141Z,22.24
2023-05-06T12:53:02.379Z,22.29
2023-05-06T12:55:32.104Z,22.15
2023-05-06T12:57:59.751Z,21.97
2023-05-06T13:00:27.663Z,21.54
2023-05-06T13:02:55.597Z,21.79
2023-05-06T13:05:23.953Z,21.61
2023-05-06T13:07:53.142Z,21.35
2023-05-06T13:10:22.466Z,21.48
2023-05-06T13:12:50.545Z,21.52
2023-05-06T13:15:18.326Z,21.21
2023-05-06T13:17:46.331Z,21.14
2023-05-06T13:20:14.302Z,20.93
2023-05-06T13:22:53.723Z,20.74
2023-05-06T13:25:23.924Z,20.88
2023-05-06T13:27:51.738Z,20.81
2023-05-06T13:30:19.651Z,20.62
2023-05-06T13:32:48.691Z,20.69
2023-05-06T13:35:16.433Z,20.69
2023-05-06T13:37:44.077Z,20.84
2023-05-06T13:40:13.161Z,21.00
2023-05-06T13:42:42.495Z,21.07
2023-05-06T13:45:11.344Z,21.25
2023-05-06T13:47:39.144Z,21.22
2023-05-06T13:50:08.404Z,21.13
2023-05-06T13:52:36.082Z,21.30
2023-05-06T13:55:03.765Z,21.35
2023-05-06T13:57:31.481Z,21.46
2023-05-06T14:00:00.719Z,21.43
2023-05-06T14:02:28.486Z,21.56
2023-05-06T14:04:56.105Z,21.53
2023-05-06T14:07:23.707Z,21.49
2023-05-06T14:09:51.247Z,21.51
2023-05-06T14:12:18.776Z,21.61
2023-05-06T14:14:46.360Z,21.63
2023-05-06T14:17:15.284Z,21.73
2023-05-06T14:19:42.852Z,21.65
2023-05-06T14:22:10.417Z,21.78
2023-05-06T14:24:37.964Z,21.54
2023-05-06T14:27:05.586Z,21.60
2023-05-06T14:29:33.432Z,21.71
2023-05-06T14:32:01.145Z,21.69
2023-05-06T14:34:30.053Z,21.67
2023-05-06T14:36:57.586Z,21.68
2023-05-06T14:39:25.192Z,21.79
2023-05-06T14:41:52.815Z,21.42
2023-05-06T14:44:20.560Z,21.57
2023-05-06T14:46:48.253Z,21.52
2023-05-06T14:49:16.381Z,21.49
2023-05-06T14:51:45.824Z,21.77
2023-05-06T14:54:13.560Z,21.50
2023-05-06T14:56:41.289Z,21.70
2023-05-06T14:59:09.106Z,21.46
2023-05-06T15:01:36.677Z,21.64
2023-05-06T15:04:04.500Z,21.56
2023-05-06T15:06:32.647Z,21.74
2023-05-06T15:09:02.999Z,21.59
2023-05-06T15:11:30.757Z,21.15
2023-05-06T15:13:58.472Z,21.26
2023-05-06T15:16:26.624Z,21.45
2023-05-06T15:18:54.513Z,21.39
2023-05-06T15:21:22.303Z,21.16
2023-05-06T15:23:50.835Z,21.12
2023-05-06T15:26:20.019Z,21.33
2023-05-06T15:28:47.848Z,21.06
2023-05-06T15:31:15.664Z,21.32
2023-05-06T15:33:43.536Z,21.15
2023-05-06T15:36:12.077Z,21.19
2023-05-06T15:38:58.367Z,21.11
2023-05-06T15:41:30.374Z,21.15
2023-05-06T15:43:59.474Z,21.16
2023-05-06T15:46:27.443Z,21.02
2023-05-06T15:49:15.644Z,20.94
2023-05-06T15:51:43.737Z,20.93
2023-05-06T15:54:11.571Z,20.90
2023-05-06T15:56:41.607Z,20.91
2023-05-06T15:59:09.617Z,20.95
2023-05-06T16:02:16.540Z,20.91
2023-05-06T16:04:25.634Z,21.05
2023-05-06T16:06:53.381Z,20.85
2023-05-06T16:09:20.974Z,20.86
2023-05-06T16:11:50.037Z,20.90
2023-05-06T16:14:17.582Z,20.96
2023-05-06T16:16:45.351Z,20.89
2023-05-06T16:19:13.061Z,21.00
2023-05-06T16:21:40.892Z,20.91
2023-05-06T16:24:08.691Z,20.85
2023-05-06T16:26:36.501Z,20.74
2023-05-06T16:29:05.390Z,20.68
2023-05-06T16:31:33.549Z,20.59
2023-05-06T16:34:01.310Z,20.52
2023-05-06T16:36:29.269Z,20.56
2023-05-06T16:38:56.848Z,20.48
2023-05-06T16:41:24.510Z,20.45
2023-05-06T16:43:52.201Z,20.55
2023-05-06T16:46:23.965Z,20.40
2023-05-06T16:48:52.299Z,20.45
2023-05-06T16:51:19.966Z,20.14
2023-05-06T16:53:47.814Z,20.10
2023-05-06T16:56:15.616Z,20.18
2023-05-06T16:58:43.389Z,20.34
2023-05-06T17:01:11.717Z,20.28
2023-05-06T17:03:40.863Z,20.13
2023-05-06T17:06:08.749Z,20.15
2023-05-06T17:08:37.223Z,20.17
2023-05-06T17:11:06.998Z,19.93
2023-05-06T17:13:34.573Z,19.82
2023-05-06T17:16:02.217Z,19.92
2023-05-06T17:18:29.837Z,20.11
2023-05-06T17:20:59.068Z,19.91
2023-05-06T17:23:27.030Z,19.90
2023-05-06T17:25:56.680Z,20.08
2023-05-06T17:28:24.900Z,20.00
2023-05-06T17:30:52.590Z,19.85
2023-05-06T17:33:20.265Z,19.78
2023-05-06T17:35:47.871Z,19.49
2023-05-06T17:38:17.430Z,19.51
2023-05-06T17:40:44.980Z,19.69
2023-05-06T17:43:12.639Z,19.61
2023-05-06T17:45:41.384Z,19.56
2023-05-06T17:48:09.029Z,19.51
2023-05-06T17:50:36.658Z,19.45
2023-05-06T17:53:04.334Z,19.27
2023-05-06T17:55:33.342Z,19.38
2023-05-06T17:58:00.978Z,19.41
2023-05-06T18:00:28.661Z,19.21
2023-05-06T18:02:56.369Z,19.08
2023-05-06T18:05:25.540Z,19.13
2023-05-06T18:07:53.377Z,19.08
2023-05-06T18:10:21.042Z,18.98
2023-05-06T18:12:50.306Z,19.07
2023-05-06T18:15:18.334Z,18.71
2023-05-06T18:17:46.372Z,18.63
2023-05-06T18:20:14.609Z,18.73
2023-05-06T18:22:42.867Z,18.68
2023-05-06T18:25:11.308Z,18.62
2023-05-06T18:27:39.368Z,18.66
2023-05-06T18:30:09.397Z,18.65
2023-05-06T18:32:37.397Z,18.60
2023-05-06T18:35:05.678Z,18.46
2023-05-06T18:37:33.671Z,18.52
2023-05-06T18:40:01.424Z,18.39
2023-05-06T18:42:29.137Z,18.31
2023-05-06T18:44:57.545Z,18.42
2023-05-06T18:47:26.926Z,18.25
2023-05-06T18:49:54.746Z,18.20
2023-05-06T18:52:23.064Z,18.14
2023-05-06T18:54:50.923Z,18.21
2023-05-06T18:57:19.529Z,18.14
2023-05-06T18:59:47.557Z,18.00
2023-05-06T19:02:15.613Z,18.22
2023-05-06T19:04:44.937Z,18.08
2023-05-06T19:07:14.334Z,18.03
2023-05-06T19:09:43.560Z,17.93
2023-05-06T19:12:11.547Z,17.94
2023-05-06T19:14:39.460Z,17.89
2023-05-06T19:17:07.283Z,17.82
2023-05-06T19:19:35.017Z,17.87
2023-05-06T19:22:04.354Z,17.87
2023-05-06T19:24:32.276Z,17.67
2023-05-06T19:27:00.123Z,17.78
2023-05-06T19:29:28.339Z,17.66
2023-05-06T19:31:56.081Z,17.66
2023-05-06T19:34:23.996Z,17.55
2023-05-06T19:36:51.803Z,17.51
2023-05-06T19:39:21.384Z,17.45
2023-05-06T19:41:49.374Z,17.55
2023-05-06T19:44:17.257Z,17.48
2023-05-06T19:46:45.061Z,17.37
2023-05-06T19:49:12.912Z,17.24
2023-05-06T19:51:40.714Z,17.20
2023-05-06T19:54:08.402Z,17.18
2023-05-06T19:56:37.433Z,17.10
2023-05-06T19:59:05.814Z,17.20
2023-05-06T20:01:33.624Z,17.13
2023-05-06T20:04:01.443Z,17.13
2023-05-06T20:06:31.161Z,17.07
2023-05-06T20:08:58.971Z,17.06
2023-05-06T20:11:26.793Z,17.01
2023-05-06T20:13:55.900Z,17.07
2023-05-06T20:16:23.897Z,16.99
2023-05-06T20:18:52.051Z,16.84
2023-05-06T20:21:19.958Z,16.90
2023-05-06T20:23:47.567Z,16.80
2023-05-06T20:26:15.245Z,16.76
2023-05-06T20:28:42.822Z,16.77
2023-05-06T20:31:11.861Z,16.88
2023-05-06T20:33:39.496Z,16.83
2023-05-06T20:36:07.570Z,16.82
2023-05-06T20:38:35.125Z,16.69
2023-05-06T20:41:03.004Z,16.65
2023-05-06T20:43:30.645Z,16.55
2023-05-06T20:45:58.351Z,16.52
2023-05-06T20:48:27.722Z,16.67
2023-05-06T20:50:57.013Z,16.62
2023-05-06T20:53:24.642Z,16.44
2023-05-06T20:55:52.722Z,16.43
2023-05-06T20:58:20.758Z,16.39
2023-05-06T21:00:49.879Z,16.31
2023-05-06T21:03:17.690Z,16.37
2023-05-06T21:05:46.732Z,16.48
2023-05-06T21:08:14.407Z,16.36
2023-05-06T21:10:41.954Z,16.44
2023-05-06T21:13:09.560Z,16.43
2023-05-06T21:15:37.713Z,16.40
2023-05-06T21:18:05.447Z,16.48
2023-05-06T21:20:33.077Z,16.40
2023-05-06T21:23:03.376Z,16.50
2023-05-06T21:25:30.984Z,16.51
2023-05-06T21:28:03.160Z,16.34
2023-05-06T21:30:30.761Z,16.32
2023-05-06T21:32:58.359Z,16.32
2023-05-06T21:35:26.034Z,16.28
2023-05-06T21:37:53.738Z,16.51
2023-05-06T21:40:22.802Z,16.42
2023-05-06T21:42:50.731Z,16.30
2023-05-06T21:45:18.520Z,16.19
2023-05-06T21:47:46.525Z,16.13
2023-05-06T21:50:14.283Z,15.98
2023-05-06T21:52:42.156Z,16.08
2023-05-06T21:55:10.332Z,16.00
2023-05-06T21:57:39.418Z,16.01
2023-05-06T22:00:11.797Z,16.21
2023-05-06T22:02:40.019Z,16.07
2023-05-06T22:05:08.801Z,16.05
2023-05-06T22:07:36.747Z,16.13
2023-05-06T22:10:04.790Z,16.08
2023-05-06T22:12:32.422Z,16.13
2023-05-06T22:15:01.394Z,16.07
2023-05-06T22:17:29.043Z,16.06
2023-05-06T22:19:56.720Z,15.94
2023-05-06T22:22:25.190Z,16.04
2023-05-06T22:24:52.949Z,16.02
2023-05-06T22:27:20.602Z,16.08
2023-05-06T22:29:48.218Z,15.93
2023-05-06T22:32:17.237Z,15.98
2023-05-06T22:34:44.838Z,15.85
2023-05-06T22:37:12.445Z,15.83
2023-05-06T22:39:40.108Z,15.91
2023-05-06T22:42:07.782Z,15.82
2023-05-06T22:44:35.337Z,15.68
2023-05-06T22:47:03.069Z,15.74
2023-05-06T22:49:32.763Z,15.68
2023-05-06T22:52:00.428Z,15.69
2023-05-06T22:54:28.065Z,15.60
2023-05-06T22:56:55.821Z,15.60
2023-05-06T22:59:23.720Z,15.57
2023-05-06T23:01:51.485Z,15.56
2023-05-06T23:04:19.668Z,15.47
2023-05-06T23:06:49.584Z,15.44
2023-05-06T23:09:17.405Z,15.34
2023-05-06T23:11:46.901Z,15.22
2023-05-06T23:14:14.581Z,15.23
2023-05-06T23:16:46.285Z,15.19
2023-05-06T23:19:14.284Z,15.18
2023-05-06T23:21:43.738Z,15.13
2023-05-06T23:24:13.000Z,15.10
2023-05-06T23:26:40.641Z,15.01
2023-05-06T23:29:08.280Z,15.05
2023-05-06T23:31:35.862Z,15.11
2023-05-06T23:34:04.047Z,15.06
2023-05-06T23:36:31.642Z,15.04
2023-05-06T23:38:59.575Z,15.04
2023-05-06T23:41:28.615Z,15.03
2023-05-06T23:43:56.521Z,14.99
2023-05-06T23:46:24.167Z,15.03
2023-05-06T23:48:51.765Z,14.95
2023-05-06T23:51:19.405Z,14.87
2023-05-06T23:53:47.541Z,14.94
2023-05-06T23:56:15.154Z,14.93
2023-05-06T23:58:44.076Z,14.76
